AEE218 LGAV-LIRN
Flight info
| Callsign | AEE218 |
|---|---|
| Flight time | 1h 36m |
| Altitude | 36000 |
| Route | KOR UL53 KRK UL995 TIGRA DCT TOPNO DCT EKTOL |
| Aircraft | A320/M-SDE3FGHIRWY/LB1 |
Departure
| Time | 2026-05-04 08:27 |
|---|---|
| Airport | Athens Eleftherios Venizelos International Airport (LGAV) |
Arrival
| Time | 2026-05-04 10:04 |
|---|---|
| Airport | Naples International Airport (LIRN) |
| Time | Latitude | Longitude | Altitude | Speed | Heading |
|---|---|---|---|---|---|
| 2026-05-04 08:06 | 37.93794 | 23.95020 | 301 ft | 0 kts | 306° |
| 2026-05-04 08:19 | 37.93766 | 23.95119 | 300 ft | 0 kts | 217° |
| 2026-05-04 08:21 | 37.93763 | 23.95115 | 300 ft | 4 kts | 217° |
| 2026-05-04 08:21 | 37.93720 | 23.95116 | 301 ft | 7 kts | 150° |
| 2026-05-04 08:21 | 37.93679 | 23.95172 | 301 ft | 10 kts | 130° |
| 2026-05-04 08:22 | 37.93621 | 23.95233 | 301 ft | 13 kts | 173° |
| 2026-05-04 08:22 | 37.93539 | 23.95175 | 298 ft | 14 kts | 217° |
| 2026-05-04 08:24 | 37.92836 | 23.94508 | 304 ft | 21 kts | 217° |
| 2026-05-04 08:24 | 37.92715 | 23.94393 | 303 ft | 23 kts | 217° |
| 2026-05-04 08:24 | 37.92611 | 23.94299 | 303 ft | 13 kts | 216° |
| 2026-05-04 08:24 | 37.92536 | 23.94324 | 307 ft | 12 kts | 134° |
| 2026-05-04 08:25 | 37.92486 | 23.94401 | 308 ft | 11 kts | 116° |
| 2026-05-04 08:25 | 37.92515 | 23.94481 | 309 ft | 13 kts | 38° |
| 2026-05-04 08:25 | 37.92550 | 23.94515 | 307 ft | 16 kts | 38° |
| 2026-05-04 08:25 | 37.92833 | 23.94788 | 298 ft | 84 kts | 37° |
| 2026-05-04 08:26 | 37.93454 | 23.95373 | 285 ft | 135 kts | 36° |
| 2026-05-04 08:27 | 38.00453 | 24.02108 | 3265 ft | 236 kts | 34° |
| 2026-05-04 08:28 | 38.01782 | 24.03365 | 4116 ft | 239 kts | 34° |
| 2026-05-04 08:28 | 38.03116 | 24.04641 | 5047 ft | 241 kts | 34° |
| 2026-05-04 08:28 | 38.04437 | 24.05912 | 5898 ft | 243 kts | 34° |
| 2026-05-04 08:28 | 38.05792 | 24.07217 | 6789 ft | 246 kts | 34° |
| 2026-05-04 08:29 | 38.07158 | 24.08530 | 7647 ft | 247 kts | 33° |
| 2026-05-04 08:29 | 38.08492 | 24.09947 | 8354 ft | 260 kts | 46° |
| 2026-05-04 08:29 | 38.09319 | 24.12069 | 8958 ft | 281 kts | 74° |
| 2026-05-04 08:31 | 37.99622 | 24.12189 | 12480 ft | 354 kts | 252° |
| 2026-05-04 08:33 | 37.92820 | 23.91272 | 16554 ft | 379 kts | 249° |
| 2026-05-04 08:33 | 37.91700 | 23.88235 | 17131 ft | 382 kts | 249° |
| 2026-05-04 08:35 | 37.89650 | 23.65342 | 20919 ft | 383 kts | 278° |
| 2026-05-04 08:35 | 37.89818 | 23.62013 | 21426 ft | 384 kts | 279° |
| 2026-05-04 08:35 | 37.89988 | 23.58634 | 21921 ft | 386 kts | 279° |
| 2026-05-04 08:35 | 37.90157 | 23.55235 | 22407 ft | 387 kts | 279° |
| 2026-05-04 08:37 | 37.91151 | 23.34622 | 25017 ft | 393 kts | 281° |
| 2026-05-04 08:37 | 37.91314 | 23.31166 | 25384 ft | 394 kts | 281° |
| 2026-05-04 08:37 | 37.91479 | 23.27695 | 25738 ft | 396 kts | 281° |
| 2026-05-04 08:38 | 37.91647 | 23.24205 | 26091 ft | 398 kts | 281° |
| 2026-05-04 08:38 | 37.91814 | 23.20702 | 26445 ft | 399 kts | 281° |
| 2026-05-04 08:38 | 37.91980 | 23.17181 | 26801 ft | 402 kts | 281° |
| 2026-05-04 08:40 | 37.93999 | 22.92564 | 29702 ft | 388 kts | 298° |
| 2026-05-04 08:40 | 37.95257 | 22.89580 | 30224 ft | 381 kts | 307° |
| 2026-05-04 08:40 | 37.96774 | 22.86836 | 30625 ft | 380 kts | 309° |
| 2026-05-04 08:41 | 37.98297 | 22.84092 | 30981 ft | 381 kts | 309° |
| 2026-05-04 08:41 | 37.99814 | 22.81343 | 31362 ft | 380 kts | 308° |
| 2026-05-04 08:41 | 38.01324 | 22.78590 | 31742 ft | 380 kts | 308° |
| 2026-05-04 08:41 | 38.02828 | 22.75836 | 32114 ft | 379 kts | 308° |
| 2026-05-04 08:42 | 38.04306 | 22.73124 | 32515 ft | 378 kts | 308° |
| 2026-05-04 08:42 | 38.05803 | 22.70385 | 32936 ft | 377 kts | 308° |
| 2026-05-04 08:42 | 38.07297 | 22.67657 | 33342 ft | 376 kts | 308° |
| 2026-05-04 08:42 | 38.08788 | 22.64938 | 33754 ft | 375 kts | 308° |
| 2026-05-04 08:43 | 38.10280 | 22.62221 | 34156 ft | 375 kts | 308° |
| 2026-05-04 08:43 | 38.11773 | 22.59502 | 34475 ft | 375 kts | 308° |
| 2026-05-04 08:43 | 38.13261 | 22.56784 | 34758 ft | 375 kts | 308° |
| 2026-05-04 08:43 | 38.14750 | 22.54059 | 35025 ft | 376 kts | 308° |
| 2026-05-04 08:44 | 38.16240 | 22.51327 | 35283 ft | 377 kts | 308° |
| 2026-05-04 08:44 | 38.17733 | 22.48588 | 35536 ft | 377 kts | 308° |
| 2026-05-04 08:46 | 38.28312 | 22.29111 | 36177 ft | 389 kts | 308° |
| 2026-05-04 08:46 | 38.31388 | 22.23446 | 36178 ft | 390 kts | 308° |
| 2026-05-04 08:47 | 38.34468 | 22.17749 | 36179 ft | 391 kts | 308° |
| 2026-05-04 08:47 | 38.37544 | 22.12043 | 36137 ft | 390 kts | 308° |
| 2026-05-04 08:48 | 38.40119 | 22.07263 | 36150 ft | 391 kts | 308° |
| 2026-05-04 08:48 | 38.43172 | 22.01587 | 36173 ft | 391 kts | 308° |
| 2026-05-04 08:49 | 38.46257 | 21.95830 | 36186 ft | 390 kts | 308° |
| 2026-05-04 08:50 | 38.56973 | 21.75768 | 36183 ft | 392 kts | 307° |
| 2026-05-04 08:51 | 38.60036 | 21.70008 | 36193 ft | 391 kts | 307° |
| 2026-05-04 08:51 | 38.63095 | 21.64251 | 36198 ft | 391 kts | 307° |
| 2026-05-04 08:52 | 38.66131 | 21.58520 | 36204 ft | 391 kts | 307° |
| 2026-05-04 08:52 | 38.69182 | 21.52753 | 36211 ft | 391 kts | 307° |
| 2026-05-04 08:54 | 38.81322 | 21.29717 | 36204 ft | 390 kts | 307° |
| 2026-05-04 08:55 | 38.84351 | 21.23936 | 36208 ft | 390 kts | 307° |
| 2026-05-04 08:55 | 38.87383 | 21.18153 | 36207 ft | 390 kts | 307° |
| 2026-05-04 09:01 | 39.19065 | 20.57021 | 36191 ft | 392 kts | 307° |
| 2026-05-04 09:01 | 39.22073 | 20.51150 | 36196 ft | 392 kts | 307° |
| 2026-05-04 09:02 | 39.25055 | 20.45306 | 36164 ft | 392 kts | 307° |
| 2026-05-04 09:02 | 39.28060 | 20.39430 | 36173 ft | 392 kts | 307° |
| 2026-05-04 09:03 | 39.31064 | 20.33550 | 36179 ft | 392 kts | 307° |
| 2026-05-04 09:03 | 39.34065 | 20.27665 | 36189 ft | 393 kts | 307° |
| 2026-05-04 09:04 | 39.37064 | 20.21763 | 36187 ft | 393 kts | 307° |
| 2026-05-04 09:04 | 39.40063 | 20.15852 | 36180 ft | 393 kts | 307° |
| 2026-05-04 09:05 | 39.43059 | 20.09931 | 36156 ft | 393 kts | 306° |
| 2026-05-04 09:05 | 39.46095 | 20.04106 | 36162 ft | 392 kts | 309° |
| 2026-05-04 09:06 | 39.49380 | 19.98472 | 36174 ft | 392 kts | 310° |
| 2026-05-04 09:08 | 39.62520 | 19.75934 | 36169 ft | 392 kts | 309° |
| 2026-05-04 09:08 | 39.65775 | 19.70258 | 36180 ft | 392 kts | 309° |
| 2026-05-04 09:09 | 39.69033 | 19.64572 | 36184 ft | 392 kts | 309° |
| 2026-05-04 09:09 | 39.72288 | 19.58883 | 36185 ft | 392 kts | 309° |
| 2026-05-04 09:10 | 39.75542 | 19.53195 | 36188 ft | 392 kts | 309° |
| 2026-05-04 09:10 | 39.78773 | 19.47532 | 36191 ft | 392 kts | 309° |
| 2026-05-04 09:11 | 39.82023 | 19.41833 | 36171 ft | 392 kts | 309° |
| 2026-05-04 09:11 | 39.85274 | 19.36122 | 36173 ft | 392 kts | 309° |
| 2026-05-04 09:12 | 39.88511 | 19.30413 | 36173 ft | 392 kts | 309° |
| 2026-05-04 09:14 | 40.01448 | 19.07517 | 36163 ft | 394 kts | 308° |
| 2026-05-04 09:14 | 40.04681 | 19.01742 | 36168 ft | 394 kts | 307° |
| 2026-05-04 09:15 | 40.07195 | 18.95352 | 36170 ft | 399 kts | 296° |
| 2026-05-04 09:15 | 40.09361 | 18.88685 | 36174 ft | 399 kts | 296° |
| 2026-05-04 09:17 | 40.19058 | 18.58645 | 36165 ft | 400 kts | 296° |
| 2026-05-04 09:18 | 40.21208 | 18.51937 | 36169 ft | 400 kts | 296° |
| 2026-05-04 09:18 | 40.23360 | 18.45230 | 36163 ft | 400 kts | 296° |
| 2026-05-04 09:19 | 40.25510 | 18.38516 | 36151 ft | 400 kts | 295° |
| 2026-05-04 09:19 | 40.27654 | 18.31792 | 36160 ft | 400 kts | 295° |
| 2026-05-04 09:20 | 40.29791 | 18.25051 | 36159 ft | 401 kts | 295° |
| 2026-05-04 09:20 | 40.31925 | 18.18306 | 36166 ft | 401 kts | 295° |
| 2026-05-04 09:21 | 40.34065 | 18.11558 | 36182 ft | 401 kts | 295° |
| 2026-05-04 09:21 | 40.36202 | 18.04793 | 36180 ft | 402 kts | 295° |
| 2026-05-04 09:22 | 40.38321 | 17.98066 | 36167 ft | 402 kts | 295° |
| 2026-05-04 09:22 | 40.40446 | 17.91281 | 36173 ft | 402 kts | 295° |
| 2026-05-04 09:23 | 40.42573 | 17.84485 | 36184 ft | 402 kts | 295° |
| 2026-05-04 09:23 | 40.44694 | 17.77693 | 36190 ft | 402 kts | 295° |
| 2026-05-04 09:25 | 40.53148 | 17.50459 | 36173 ft | 402 kts | 295° |
| 2026-05-04 09:26 | 40.55248 | 17.43642 | 36174 ft | 402 kts | 295° |
| 2026-05-04 09:26 | 40.57332 | 17.36863 | 36150 ft | 402 kts | 294° |
| 2026-05-04 09:27 | 40.59430 | 17.30024 | 36152 ft | 403 kts | 294° |
| 2026-05-04 09:27 | 40.61530 | 17.23188 | 36158 ft | 403 kts | 294° |
| 2026-05-04 09:28 | 40.63617 | 17.16329 | 36164 ft | 404 kts | 294° |
| 2026-05-04 09:28 | 40.65706 | 17.09457 | 36165 ft | 404 kts | 294° |
| 2026-05-04 09:29 | 40.67797 | 17.02578 | 36154 ft | 405 kts | 294° |
| 2026-05-04 09:29 | 40.69879 | 16.95727 | 36157 ft | 405 kts | 293° |
| 2026-05-04 09:30 | 40.71962 | 16.88828 | 36161 ft | 406 kts | 293° |
| 2026-05-04 09:30 | 40.74042 | 16.81916 | 36178 ft | 406 kts | 293° |
| 2026-05-04 09:31 | 40.76128 | 16.74995 | 36186 ft | 406 kts | 293° |
| 2026-05-04 09:31 | 40.78208 | 16.68062 | 36174 ft | 406 kts | 293° |
| 2026-05-04 09:32 | 40.80277 | 16.61116 | 36169 ft | 407 kts | 293° |
| 2026-05-04 09:34 | 40.88557 | 16.33257 | 36165 ft | 408 kts | 292° |
| 2026-05-04 09:34 | 40.90622 | 16.26269 | 36164 ft | 408 kts | 292° |
| 2026-05-04 09:35 | 40.91653 | 16.22760 | 35979 ft | 410 kts | 292° |
| 2026-05-04 09:35 | 40.92683 | 16.19253 | 35556 ft | 410 kts | 292° |
| 2026-05-04 09:35 | 40.93716 | 16.15726 | 34854 ft | 412 kts | 292° |
| 2026-05-04 09:35 | 40.94754 | 16.12173 | 34120 ft | 415 kts | 291° |
| 2026-05-04 09:37 | 40.99404 | 15.85828 | 28201 ft | 410 kts | 283° |
| 2026-05-04 09:37 | 41.00023 | 15.82156 | 27575 ft | 407 kts | 284° |
| 2026-05-04 09:38 | 41.00638 | 15.78514 | 26955 ft | 405 kts | 284° |
| 2026-05-04 09:38 | 41.01248 | 15.74886 | 26332 ft | 403 kts | 284° |
| 2026-05-04 09:38 | 41.01854 | 15.71270 | 25735 ft | 401 kts | 284° |
| 2026-05-04 09:38 | 41.02457 | 15.67672 | 25131 ft | 400 kts | 284° |
| 2026-05-04 09:39 | 41.03059 | 15.64083 | 24520 ft | 399 kts | 284° |
| 2026-05-04 09:39 | 41.03660 | 15.60497 | 23922 ft | 399 kts | 283° |
| 2026-05-04 09:39 | 41.04259 | 15.56914 | 23250 ft | 399 kts | 283° |
| 2026-05-04 09:39 | 41.04853 | 15.53329 | 22662 ft | 396 kts | 283° |
| 2026-05-04 09:40 | 41.05439 | 15.49779 | 22097 ft | 393 kts | 283° |
| 2026-05-04 09:40 | 41.06019 | 15.46249 | 21550 ft | 391 kts | 283° |
| 2026-05-04 09:40 | 41.06594 | 15.42741 | 21005 ft | 389 kts | 283° |
| 2026-05-04 09:40 | 41.07166 | 15.39249 | 20491 ft | 386 kts | 283° |
| 2026-05-04 09:41 | 41.07731 | 15.35789 | 19978 ft | 383 kts | 283° |
| 2026-05-04 09:42 | 41.07699 | 15.12514 | 16693 ft | 375 kts | 234° |
| 2026-05-04 09:43 | 41.06034 | 15.09836 | 16376 ft | 377 kts | 230° |
| 2026-05-04 09:43 | 41.04325 | 15.07201 | 16075 ft | 376 kts | 230° |
| 2026-05-04 09:43 | 41.02619 | 15.04585 | 15770 ft | 375 kts | 230° |
| 2026-05-04 09:43 | 41.00915 | 15.01980 | 15469 ft | 373 kts | 230° |
| 2026-05-04 09:44 | 40.99218 | 14.99385 | 15163 ft | 372 kts | 230° |
| 2026-05-04 09:44 | 40.97526 | 14.96803 | 14871 ft | 371 kts | 230° |
| 2026-05-04 09:44 | 40.96387 | 14.95067 | 14680 ft | 369 kts | 230° |
| 2026-05-04 09:46 | 40.85663 | 14.77067 | 12912 ft | 329 kts | 239° |
| 2026-05-04 09:46 | 40.84477 | 14.74548 | 12783 ft | 317 kts | 239° |
| 2026-05-04 09:46 | 40.83333 | 14.72128 | 12650 ft | 303 kts | 239° |
| 2026-05-04 09:47 | 40.82254 | 14.69791 | 12525 ft | 293 kts | 244° |
| 2026-05-04 09:47 | 40.81814 | 14.67255 | 12394 ft | 281 kts | 275° |
| 2026-05-04 09:49 | 40.91869 | 14.61178 | 11027 ft | 262 kts | 50° |
| 2026-05-04 09:49 | 40.92868 | 14.63164 | 10883 ft | 263 kts | 57° |
| 2026-05-04 09:49 | 40.93831 | 14.65229 | 10727 ft | 264 kts | 57° |
| 2026-05-04 09:51 | 40.99568 | 14.77553 | 9597 ft | 260 kts | 57° |
| 2026-05-04 09:51 | 41.00515 | 14.79583 | 9432 ft | 258 kts | 57° |
| 2026-05-04 09:51 | 41.01457 | 14.81602 | 9279 ft | 257 kts | 57° |
| 2026-05-04 09:51 | 41.02394 | 14.83609 | 9131 ft | 256 kts | 57° |
| 2026-05-04 09:52 | 41.03395 | 14.85549 | 8979 ft | 254 kts | 43° |
| 2026-05-04 09:52 | 41.04848 | 14.86673 | 8837 ft | 243 kts | 11° |
| 2026-05-04 09:52 | 41.06481 | 14.86614 | 8691 ft | 233 kts | 340° |
| 2026-05-04 09:52 | 41.07899 | 14.85622 | 8537 ft | 228 kts | 327° |
| 2026-05-04 09:53 | 41.09227 | 14.84535 | 8398 ft | 221 kts | 327° |
| 2026-05-04 09:53 | 41.10516 | 14.83473 | 8259 ft | 215 kts | 327° |
| 2026-05-04 09:53 | 41.11586 | 14.82133 | 8126 ft | 213 kts | 300° |
| 2026-05-04 09:53 | 41.12020 | 14.80284 | 7995 ft | 212 kts | 270° |
| 2026-05-04 09:54 | 41.11706 | 14.78389 | 7874 ft | 212 kts | 242° |
| 2026-05-04 09:54 | 41.10937 | 14.76715 | 7748 ft | 213 kts | 239° |
| 2026-05-04 09:54 | 41.10152 | 14.75047 | 7630 ft | 213 kts | 239° |
| 2026-05-04 09:54 | 41.09368 | 14.73376 | 7499 ft | 213 kts | 238° |
| 2026-05-04 09:55 | 41.08586 | 14.71712 | 7385 ft | 213 kts | 238° |
| 2026-05-04 09:55 | 41.07803 | 14.70045 | 7261 ft | 213 kts | 238° |
| 2026-05-04 09:55 | 41.07034 | 14.68405 | 7138 ft | 212 kts | 238° |
| 2026-05-04 09:55 | 41.06253 | 14.66742 | 7015 ft | 212 kts | 238° |
| 2026-05-04 09:56 | 41.05474 | 14.65077 | 6760 ft | 216 kts | 238° |
| 2026-05-04 09:56 | 41.04664 | 14.63345 | 6305 ft | 225 kts | 238° |
| 2026-05-04 09:56 | 41.03858 | 14.61620 | 5990 ft | 217 kts | 238° |
| 2026-05-04 09:56 | 41.03064 | 14.59921 | 5540 ft | 216 kts | 238° |
| 2026-05-04 09:57 | 41.02283 | 14.58249 | 5258 ft | 207 kts | 238° |
| 2026-05-04 09:57 | 41.01558 | 14.56698 | 5201 ft | 190 kts | 239° |
| 2026-05-04 09:57 | 41.00880 | 14.55246 | 5012 ft | 183 kts | 238° |
| 2026-05-04 09:57 | 41.00226 | 14.53846 | 4771 ft | 175 kts | 238° |
| 2026-05-04 09:58 | 40.99596 | 14.52498 | 4519 ft | 169 kts | 239° |
| 2026-05-04 09:58 | 40.98989 | 14.51200 | 4270 ft | 163 kts | 239° |
| 2026-05-04 09:58 | 40.98400 | 14.49942 | 4032 ft | 160 kts | 239° |
| 2026-05-04 10:00 | 40.94770 | 14.42197 | 2556 ft | 136 kts | 238° |
| 2026-05-04 10:00 | 40.94271 | 14.41133 | 2373 ft | 136 kts | 239° |
| 2026-05-04 10:02 | 40.90657 | 14.33476 | 931 ft | 144 kts | 238° |
| 2026-05-04 10:04 | 40.88159 | 14.28371 | 285 ft | 11 kts | 209° |
| 2026-05-04 10:04 | 40.88123 | 14.28346 | 286 ft | 2 kts | 207° |
| 2026-05-04 10:04 | 40.88111 | 14.28337 | 291 ft | 2 kts | 207° |
| 2026-05-04 10:04 | 40.88073 | 14.28291 | 288 ft | 12 kts | 247° |
| 2026-05-04 10:05 | 40.88045 | 14.28186 | 295 ft | 12 kts | 242° |
| 2026-05-04 10:05 | 40.87984 | 14.28134 | 296 ft | 10 kts | 170° |
| 2026-05-04 10:05 | 40.87956 | 14.28218 | 294 ft | 12 kts | 96° |
| 2026-05-04 10:05 | 40.87945 | 14.28280 | 290 ft | 4 kts | 136° |
| 2026-05-04 10:06 | 40.87915 | 14.28289 | 291 ft | 5 kts | 179° |
| 2026-05-04 10:06 | 40.87880 | 14.28284 | 291 ft | 0 kts | 187° |